Abbott, New Mexico
Current Conditions -  °F | °C
As of 2:53 PM on Friday 24 Oct 2014 (Local Time) from KRTN Reporting Station
Clear Clear  
Wind Chill: 26°   Ceiling: Unl
Heat Index: 26°   Visibility: 10mi
Dew Point: -4°   Wind: 5mph
Humidity: 14%   Direction: NA
Pressure: 30.21"   Gusts: NA
Location:  36.3883°N, 104.381°W
Report Text: KRTN 242053Z AUTO VRB04KT 10SM CLR 26/M04 A3021 RMK AO2 SLP164 T02561039 56020
Loading
Personal Weather Stations






























Interactive Weather Map
Tropical Storm Tracking
New forecast layout! Learn more

10-Day Weather Forecast

Advertisements
Track Severe Weather on mobile